Time;durP1;ratioP1;P1;durP2;ratioP2;P2;SDS_P1;SDS_P2;PMS_P1;PMS_P2;Temp;Humidity;BMP_temperature;BMP_pressure;BME280_temperature;BME280_humidity;BME280_pressure;Samples;Min_cycle;Max_cycle;Signal;HPM_P1;HPM_P2
2020/12/29 00:00:39;;;;;;;4.40;3.17;;;;;;;3.21;87.00;95579.53;5003833;27;20026;-62
2020/12/29 00:03:05;;;;;;;4.90;3.63;;;;;;;3.13;87.83;95580.72;5012977;28;20026;-62
2020/12/29 00:05:30;;;;;;;4.53;2.97;;;;;;;3.14;87.85;95580.63;5012723;28;20026;-62
2020/12/29 00:07:56;;;;;;;4.73;3.43;;;;;;;3.10;88.04;95585.88;5013794;28;20103;-62
2020/12/29 00:10:23;;;;;;;4.87;2.83;;;;;;;3.20;87.17;95592.25;5006435;28;20110;-62
2020/12/29 00:12:50;;;;;;;3.83;3.07;;;;;;;3.17;87.44;95595.72;4993657;28;20030;-62
2020/12/29 00:15:15;;;;;;;6.33;3.10;;;;;;;3.11;87.61;95595.94;4997745;28;20450;-62
2020/12/29 00:17:41;;;;;;;3.40;2.97;;;;;;;3.10;87.71;95586.72;5013377;28;20059;-62
2020/12/29 00:20:07;;;;;;;3.47;2.67;;;;;;;3.09;88.26;95591.84;5009782;28;20045;-62
2020/12/29 00:22:33;;;;;;;5.07;3.10;;;;;;;3.09;88.25;95589.31;4992993;28;20026;-62
2020/12/29 00:24:58;;;;;;;4.10;3.50;;;;;;;3.12;88.03;95592.53;4992422;28;20079;-62
2020/12/29 00:27:24;;;;;;;4.23;3.63;;;;;;;3.05;87.53;95588.63;4994321;28;20100;-62
2020/12/29 00:29:49;;;;;;;4.53;2.83;;;;;;;3.14;87.45;95582.38;4992924;28;20031;-62
2020/12/29 00:32:15;;;;;;;4.77;3.47;;;;;;;3.17;86.59;95572.94;5011578;28;20033;-62
2020/12/29 00:34:40;;;;;;;3.77;3.03;;;;;;;3.16;86.92;95578.88;5012554;28;20109;-62
2020/12/29 00:37:06;;;;;;;4.23;3.07;;;;;;;3.13;86.94;95585.78;4995377;28;20086;-62
2020/12/29 00:39:31;;;;;;;4.80;2.73;;;;;;;3.13;86.26;95591.66;4992813;28;20386;-62
2020/12/29 00:41:57;;;;;;;2.97;2.33;;;;;;;3.13;86.92;95599.25;4995734;28;20022;-62
2020/12/29 00:44:23;;;;;;;3.80;3.00;;;;;;;3.13;87.30;95603.50;5004738;28;20033;-62
2020/12/29 00:46:49;;;;;;;3.93;3.33;;;;;;;3.05;88.19;95621.50;4998000;28;20537;-62
2020/12/29 00:49:14;;;;;;;6.13;3.67;;;;;;;3.01;88.33;95621.69;5012517;28;20026;-62
2020/12/29 00:51:39;;;;;;;6.53;4.30;;;;;;;3.00;88.52;95623.38;5007955;28;20112;-62
2020/12/29 00:54:05;;;;;;;5.47;3.80;;;;;;;2.97;88.53;95620.94;5012603;28;20109;-62
2020/12/29 00:56:30;;;;;;;6.37;4.73;;;;;;;2.94;88.92;95626.13;5011747;28;20354;-63
2020/12/29 00:58:55;;;;;;;8.93;5.80;;;;;;;2.86;89.96;95645.00;5012460;28;20082;-62
2020/12/29 01:01:21;;;;;;;11.50;6.30;;;;;;;2.95;89.88;95664.91;5012309;28;20053;-62
2020/12/29 01:03:46;;;;;;;11.40;7.47;;;;;;;2.93;89.44;95676.81;4998656;28;20025;-62
2020/12/29 01:06:12;;;;;;;10.20;5.87;;;;;;;2.99;89.59;95697.63;5012960;28;20030;-62
2020/12/29 01:08:38;;;;;;;8.80;6.03;;;;;;;2.98;89.61;95705.28;5009909;28;20517;-62
2020/12/29 01:11:03;;;;;;;7.07;4.60;;;;;;;3.00;89.55;95703.53;4998624;28;20022;-62
2020/12/29 01:13:29;;;;;;;8.00;5.13;;;;;;;3.05;89.23;95711.78;5012291;28;20072;-62
2020/12/29 01:15:54;;;;;;;6.17;4.03;;;;;;;3.06;89.42;95711.72;5012254;28;20026;-62
2020/12/29 01:18:20;;;;;;;7.03;4.50;;;;;;;3.09;89.09;95720.91;5007486;28;20414;-63
2020/12/29 01:20:48;;;;;;;8.47;5.03;;;;;;;3.13;88.93;95724.97;5006568;28;20030;-63
2020/12/29 01:23:13;;;;;;;8.30;4.93;;;;;;;3.12;89.30;95733.44;5008920;28;20014;-62
2020/12/29 01:25:40;;;;;;;7.63;4.90;;;;;;;3.13;89.05;95741.00;4993215;28;20041;-62
2020/12/29 01:28:06;;;;;;;7.60;5.03;;;;;;;3.14;89.20;95736.75;4991426;28;20022;-63
2020/12/29 01:30:31;;;;;;;6.97;5.27;;;;;;;3.17;89.42;95737.47;4993399;28;20171;-62
2020/12/29 01:32:56;;;;;;;6.87;5.10;;;;;;;3.18;89.22;95735.75;4991479;28;20046;-62
2020/12/29 01:35:22;;;;;;;8.43;5.53;;;;;;;3.16;90.00;95735.81;4992499;28;20417;-62
2020/12/29 01:37:47;;;;;;;6.87;5.10;;;;;;;3.16;90.06;95732.44;4992496;28;20092;-62
2020/12/29 01:40:13;;;;;;;8.63;5.80;;;;;;;3.18;89.43;95726.44;5007838;28;20033;-61
2020/12/29 01:42:40;;;;;;;7.37;5.23;;;;;;;3.20;89.43;95723.88;5011624;28;20140;-62
2020/12/29 01:45:10;;;;;;;9.37;5.87;;;;;;;3.23;89.11;95711.91;4997818;28;20029;-63
2020/12/29 01:47:38;;;;;;;8.47;6.00;;;;;;;3.23;89.85;95721.22;4992757;28;20033;-62
2020/12/29 01:50:15;;;;;;;9.93;6.67;;;;;;;3.15;nan;95736.69;5004826;28;20029;-62
2020/12/29 01:52:41;;;;;;;9.03;5.87;;;;;;;3.06;90.13;95733.66;5011674;28;20059;-62
2020/12/29 01:55:09;;;;;;;8.27;5.93;;;;;;;3.08;90.03;95747.09;5011188;28;20074;-63
2020/12/29 01:57:35;;;;;;;9.17;5.03;;;;;;;3.00;90.24;95751.59;5012577;28;20021;-63
2020/12/29 02:00:12;;;;;;;8.13;4.37;;;;;;;3.08;90.25;95765.63;4999538;28;20386;-62
2020/12/29 02:02:37;;;;;;;7.77;4.37;;;;;;;3.11;89.94;95759.63;4992512;28;20041;-63
2020/12/29 02:05:04;;;;;;;4.77;3.70;;;;;;;3.11;89.42;95757.09;4990754;28;20030;-62
2020/12/29 02:07:30;;;;;;;6.40;3.83;;;;;;;3.09;89.71;95758.88;5007409;28;20446;-62
2020/12/29 02:09:56;;;;;;;4.37;3.57;;;;;;;3.08;89.61;95768.16;4992199;28;20026;-62
2020/12/29 02:12:27;;;;;;;3.47;2.87;;;;;;;3.18;89.33;95776.25;4991318;28;20053;-62
2020/12/29 02:14:54;;;;;;;2.77;2.30;;;;;;;3.21;88.32;95797.22;5011980;27;20033;-62
2020/12/29 02:17:19;;;;;;;2.93;2.30;;;;;;;3.21;87.87;95798.94;5010851;28;20026;-63
2020/12/29 02:19:45;;;;;;;2.37;2.17;;;;;;;3.27;87.41;95813.06;5011499;28;20026;-63
2020/12/29 02:22:22;;;;;;;2.43;1.60;;;;;;;3.38;86.09;95829.53;5011073;28;20358;-62
2020/12/29 02:24:53;;;;;;;1.70;1.47;;;;;;;3.37;86.05;95844.75;5011460;28;20155;-62
2020/12/29 02:27:20;;;;;;;2.60;1.80;;;;;;;3.27;85.17;95841.72;5010901;28;20032;-62
2020/12/29 02:29:46;;;;;;;2.03;1.70;;;;;;;3.16;85.56;95847.19;4993731;28;20030;-63
2020/12/29 02:32:12;;;;;;;2.57;1.90;;;;;;;3.02;86.37;95856.09;4991028;28;20026;-63
2020/12/29 02:34:39;;;;;;;3.40;1.60;;;;;;;2.96;86.53;95849.56;5005679;28;20037;-63
2020/12/29 02:37:08;;;;;;;1.50;1.40;;;;;;;2.88;87.01;95851.53;5011452;28;20053;-62
2020/12/29 02:39:34;;;;;;;4.00;2.77;;;;;;;2.80;87.38;95867.84;5009784;28;20040;-62
2020/12/29 02:42:00;;;;;;;3.37;2.57;;;;;;;2.75;87.71;95876.41;5010914;28;20113;-62
2020/12/29 02:44:25;;;;;;;4.60;2.90;;;;;;;2.71;87.97;95876.56;4998926;28;20089;-62
2020/12/29 02:46:51;;;;;;;3.37;2.70;;;;;;;2.56;88.51;95887.97;4991257;28;20030;-62
2020/12/29 02:49:17;;;;;;;3.60;2.70;;;;;;;2.51;88.98;95889.81;4999552;28;20101;-62
2020/12/29 02:51:43;;;;;;;3.83;3.13;;;;;;;2.47;88.47;95877.31;5011120;28;20030;-62
2020/12/29 02:54:13;;;;;;;4.00;3.33;;;;;;;2.38;89.32;95890.28;5002850;28;20343;-62
2020/12/29 02:56:39;;;;;;;3.70;3.20;;;;;;;2.32;89.60;95878.66;4991688;28;20443;-62
2020/12/29 02:59:05;;;;;;;3.03;2.43;;;;;;;2.27;89.25;95872.91;4990980;28;20053;-62
2020/12/29 03:01:30;;;;;;;5.57;3.50;;;;;;;2.23;90.11;95872.19;4991607;28;20410;-62
2020/12/29 03:03:56;;;;;;;3.07;2.70;;;;;;;2.20;89.68;95866.41;4989886;28;20034;-62
2020/12/29 03:06:22;;;;;;;3.17;2.67;;;;;;;2.13;89.54;95870.78;4995379;28;20042;-62
2020/12/29 03:08:49;;;;;;;4.93;3.73;;;;;;;2.18;89.86;95866.44;4992550;28;20027;-62
2020/12/29 03:11:14;;;;;;;4.50;2.70;;;;;;;2.12;89.02;95881.75;4991387;28;20048;-62
2020/12/29 03:13:40;;;;;;;2.80;2.50;;;;;;;2.01;88.85;95898.97;4990761;28;20556;-62
2020/12/29 03:16:05;;;;;;;3.80;2.80;;;;;;;1.90;89.15;95917.81;4998931;28;20030;-61
2020/12/29 03:18:31;;;;;;;5.17;3.17;;;;;;;1.79;90.03;95929.06;5007213;28;20109;-61
2020/12/29 03:20:56;;;;;;;4.30;2.80;;;;;;;1.68;89.82;95938.63;4999486;28;20030;-61
2020/12/29 03:23:21;;;;;;;4.10;2.87;;;;;;;1.60;88.88;95947.28;5003647;28;20174;-61
2020/12/29 03:25:47;;;;;;;4.30;3.10;;;;;;;1.50;90.49;95954.28;4998846;28;20064;-61
2020/12/29 03:28:12;;;;;;;3.30;2.37;;;;;;;1.50;90.62;95956.81;4998374;28;20512;-61
2020/12/29 03:30:38;;;;;;;4.80;3.07;;;;;;;1.42;90.32;95961.22;5003705;28;20026;-61
2020/12/29 03:33:03;;;;;;;3.43;2.60;;;;;;;1.38;89.57;95960.47;4994533;28;20054;-61
2020/12/29 03:35:28;;;;;;;3.27;2.63;;;;;;;1.28;89.58;95968.31;4996580;28;20061;-61
2020/12/29 03:37:54;;;;;;;9.67;5.73;;;;;;;1.28;89.88;95965.78;4994997;28;20159;-61
2020/12/29 03:40:19;;;;;;;7.17;5.03;;;;;;;1.20;90.00;95950.03;5000175;28;20098;-61
2020/12/29 03:42:45;;;;;;;6.70;4.47;;;;;;;1.11;90.06;95957.81;5006237;28;20470;-61
2020/12/29 03:45:10;;;;;;;6.93;4.47;;;;;;;1.06;90.33;95950.38;5000383;28;20568;-62
2020/12/29 03:47:35;;;;;;;4.67;3.57;;;;;;;1.02;90.51;95951.31;5002128;28;20025;-61
2020/12/29 03:50:01;;;;;;;6.90;4.30;;;;;;;1.09;90.48;95967.97;5003646;28;20033;-61
2020/12/29 03:52:26;;;;;;;4.70;3.40;;;;;;;1.17;90.79;95973.66;5002842;28;20026;-61
2020/12/29 03:54:52;;;;;;;4.13;2.60;;;;;;;1.09;90.94;95980.59;4998382;28;20051;-61
2020/12/29 03:57:17;;;;;;;5.57;3.17;;;;;;;1.08;91.03;95986.47;4996106;28;20095;-62
2020/12/29 03:59:42;;;;;;;5.43;3.23;;;;;;;1.03;90.72;95985.75;4995929;28;20054;-61
2020/12/29 04:02:09;;;;;;;4.10;2.73;;;;;;;0.95;90.43;95980.06;4994338;28;20033;-61
2020/12/29 04:04:36;;;;;;;5.20;2.63;;;;;;;0.99;90.85;95975.78;5002734;28;20359;-61
2020/12/29 04:07:02;;;;;;;3.33;2.40;;;;;;;0.95;91.32;95964.13;5003215;28;20030;-61
2020/12/29 04:09:30;;;;;;;3.73;1.87;;;;;;;1.02;91.13;95965.63;4999246;28;20026;-61
2020/12/29 04:11:56;;;;;;;3.10;2.27;;;;;;;1.00;90.95;95988.38;5001977;28;20026;-63
2020/12/29 04:14:22;;;;;;;5.60;2.30;;;;;;;1.12;90.97;95995.63;4998172;28;20031;-62
2020/12/29 04:16:47;;;;;;;2.80;1.93;;;;;;;1.09;90.88;96017.59;4999779;28;20380;-62
2020/12/29 04:19:13;;;;;;;5.30;2.57;;;;;;;0.96;90.56;96033.88;4997356;28;20065;-61
2020/12/29 04:21:38;;;;;;;5.67;3.10;;;;;;;0.93;90.88;96035.59;5001223;28;20033;-61
2020/12/29 04:24:04;;;;;;;3.77;2.57;;;;;;;0.84;90.03;96025.75;5005557;28;20050;-61
2020/12/29 04:26:29;;;;;;;8.57;4.53;;;;;;;0.71;90.42;96024.34;4999836;28;20026;-62
2020/12/29 04:28:54;;;;;;;10.63;6.03;;;;;;;0.55;90.50;96038.16;5004509;28;20030;-62
2020/12/29 04:31:23;;;;;;;8.47;4.10;;;;;;;0.54;90.32;96036.50;5003409;28;20037;-59
2020/12/29 04:33:49;;;;;;;4.43;3.13;;;;;;;0.43;90.57;96045.97;5011183;28;20046;-61
2020/12/29 04:36:15;;;;;;;5.00;3.30;;;;;;;0.46;90.89;96040.88;4992484;28;20359;-61
2020/12/29 04:38:40;;;;;;;5.27;2.77;;;;;;;0.37;90.98;96054.50;4992054;28;20036;-61
2020/12/29 04:41:06;;;;;;;5.20;3.33;;;;;;;0.45;91.83;96064.41;4992310;28;20030;-62
2020/12/29 04:43:33;;;;;;;9.77;5.33;;;;;;;0.43;91.99;96074.50;5008880;28;20105;-61
2020/12/29 04:46:01;;;;;;;4.93;3.40;;;;;;;0.48;91.87;96081.97;5007174;28;20120;-61
2020/12/29 04:48:27;;;;;;;3.83;2.77;;;;;;;0.53;92.01;96097.00;5012691;28;20033;-61
2020/12/29 04:51:00;;;;;;;8.90;4.20;;;;;;;0.63;91.40;96111.94;5007974;28;20030;-61
2020/12/29 04:53:29;;;;;;;6.80;3.20;;;;;;;0.52;91.31;96123.06;5011831;28;20030;-61
2020/12/29 04:56:00;;;;;;;7.23;4.03;;;;;;;0.47;90.85;96136.59;4998413;28;20060;-61
2020/12/29 04:58:28;;;;;;;3.07;1.83;;;;;;;0.37;91.20;96160.34;5000416;28;20116;-61
2020/12/29 05:00:54;;;;;;;3.53;1.70;;;;;;;0.28;91.09;96157.16;4993847;28;20034;-61
2020/12/29 05:03:19;;;;;;;2.33;1.50;;;;;;;0.24;91.03;96153.84;4993480;28;20022;-61
2020/12/29 05:05:45;;;;;;;2.93;1.67;;;;;;;0.19;91.04;96164.88;4999525;28;20113;-61
2020/12/29 05:08:10;;;;;;;2.73;1.77;;;;;;;0.18;91.38;96174.09;5013246;28;20036;-60
2020/12/29 05:10:47;;;;;;;4.90;2.83;;;;;;;0.23;91.68;96177.38;5006796;28;20033;-61
2020/12/29 05:13:13;;;;;;;2.43;2.03;;;;;;;0.15;91.39;96196.84;4993011;28;20455;-61
2020/12/29 05:15:38;;;;;;;4.70;3.43;;;;;;;0.19;92.46;96200.13;5005701;28;20041;-61
2020/12/29 05:18:04;;;;;;;7.70;4.93;;;;;;;0.36;92.50;96193.09;5010168;28;20029;-62
2020/12/29 05:20:33;;;;;;;8.30;5.13;;;;;;;0.47;92.70;96197.97;5003306;28;20082;-62
2020/12/29 05:23:00;;;;;;;8.67;4.80;;;;;;;0.42;92.55;96201.38;5012163;28;20097;-61
2020/12/29 05:25:25;;;;;;;10.93;8.67;;;;;;;0.42;92.08;96203.88;5009601;28;20113;-62
2020/12/29 05:27:51;;;;;;;14.23;8.33;;;;;;;0.28;92.31;96220.13;4996588;28;20129;-62
2020/12/29 05:30:17;;;;;;;15.90;13.13;;;;;;;0.24;92.04;96214.31;4992222;28;20061;-62
2020/12/29 05:32:43;;;;;;;21.37;19.17;;;;;;;0.22;91.71;96220.22;4992170;28;20375;-61
2020/12/29 05:35:13;;;;;;;15.53;13.10;;;;;;;0.20;91.17;96220.28;4991517;28;20033;-62
2020/12/29 05:37:40;;;;;;;11.77;10.20;;;;;;;0.08;91.20;96223.00;4993011;28;20056;-62
2020/12/29 05:40:28;;;;;;;9.87;7.03;;;;;;;0.06;91.12;96228.91;4991360;28;20082;-62
2020/12/29 05:42:56;;;;;;;8.67;7.63;;;;;;;-0.03;91.28;96234.94;4999876;28;20056;-62
2020/12/29 05:45:24;;;;;;;9.17;6.87;;;;;;;-0.08;91.26;96235.00;5011609;28;20087;-61
2020/12/29 05:47:57;;;;;;;7.40;6.60;;;;;;;-0.09;91.35;96235.88;5004446;28;20062;-61
2020/12/29 05:50:23;;;;;;;6.87;5.60;;;;;;;-0.17;91.25;96230.09;5001547;28;20026;-61
2020/12/29 05:52:57;;;;;;;6.80;5.20;;;;;;;-0.17;91.33;96230.09;5010834;28;20033;-61
2020/12/29 05:55:23;;;;;;;6.30;4.53;;;;;;;-0.23;91.02;96244.50;5011838;28;20060;-61
2020/12/29 05:58:07;;;;;;;7.60;4.90;;;;;;;-0.22;91.15;96252.03;5010691;28;20400;-61
2020/12/29 06:00:34;;;;;;;5.90;4.80;;;;;;;-0.27;91.45;96256.28;5008307;28;20071;-61
2020/12/29 06:03:00;;;;;;;5.40;4.40;;;;;;;-0.25;92.00;96259.59;4991179;28;20025;-61
2020/12/29 06:05:28;;;;;;;5.33;4.40;;;;;;;-0.25;91.95;96262.13;4992589;28;20026;-61
2020/12/29 06:07:59;;;;;;;6.37;4.53;;;;;;;-0.19;91.91;96254.47;5012091;28;20113;-61
2020/12/29 06:10:25;;;;;;;10.33;5.90;;;;;;;-0.21;92.31;96265.44;5009507;28;20028;-61
2020/12/29 06:12:56;;;;;;;14.77;7.37;;;;;;;-0.07;92.52;96259.31;4992440;28;20101;-61
2020/12/29 06:15:33;;;;;;;19.07;9.80;;;;;;;-0.07;92.52;96264.38;4991335;28;20026;-62
2020/12/29 06:18:04;;;;;;;19.43;11.27;;;;;;;-0.18;92.15;96273.78;4993048;28;20034;-62
2020/12/29 06:20:56;;;;;;;17.43;9.57;;;;;;;-0.18;92.37;96268.75;5002523;28;20037;-60
2020/12/29 06:23:26;;;;;;;12.27;7.30;;;;;;;-0.18;92.26;96266.22;4990785;28;20053;-62
2020/12/29 06:25:54;;;;;;;8.67;6.73;;;;;;;-0.21;92.37;96271.28;4990699;28;20513;-62
2020/12/29 06:28:27;;;;;;;14.63;8.97;;;;;;;-0.22;92.27;96277.19;4992204;28;20034;-62
2020/12/29 06:30:56;;;;;;;17.00;7.03;;;;;;;-0.17;92.06;96293.03;4990552;28;20021;-60
2020/12/29 06:33:23;;;;;;;12.13;6.03;;;;;;;-0.23;92.06;96298.19;4991684;28;20057;-60
2020/12/29 06:35:50;;;;;;;9.80;5.40;;;;;;;-0.26;91.88;96305.78;4990885;28;20033;-61
2020/12/29 06:38:22;;;;;;;10.80;5.17;;;;;;;-0.34;91.57;96320.13;4998820;28;20022;-61
2020/12/29 06:40:49;;;;;;;10.63;5.40;;;;;;;-0.46;91.38;96317.78;5010888;28;20357;-61
2020/12/29 06:43:15;;;;;;;11.90;6.20;;;;;;;-0.52;91.18;96327.97;5009935;28;20399;-61
2020/12/29 06:45:41;;;;;;;22.07;10.40;;;;;;;-0.58;91.25;96336.41;5009895;28;20029;-61
2020/12/29 06:48:32;;;;;;;18.47;9.57;;;;;;;-0.63;91.49;96339.81;5009986;28;20021;-61
2020/12/29 06:51:07;;;;;;;15.43;8.50;;;;;;;-0.69;91.26;96343.25;5011715;28;20049;-61
2020/12/29 06:53:33;;;;;;;21.55;11.80;;;;;;;-0.80;91.41;96347.56;5004856;28;20027;-61
2020/12/29 06:56:00;;;;;;;18.10;9.90;;;;;;;-0.76;91.71;96366.81;4994690;28;20030;-61
2020/12/29 06:58:34;;;;;;;24.70;11.53;;;;;;;-0.76;91.63;96371.84;5000897;28;20030;-61
2020/12/29 07:01:24;;;;;;;20.17;10.40;;;;;;;-0.79;91.50;96378.59;5014203;28;20018;-61
2020/12/29 07:04:04;;;;;;;36.33;16.00;;;;;;;-0.78;91.28;96377.75;5019996;28;20113;-61
2020/12/29 07:06:31;;;;;;;47.23;18.83;;;;;;;-0.84;91.83;96377.78;5014203;28;20143;-61
2020/12/29 07:09:24;;;;;;;44.93;20.20;;;;;;;-0.79;91.97;96384.44;5003376;28;20371;-61
2020/12/29 07:12:05;;;;;;;57.40;22.97;;;;;;;-0.79;91.89;96383.63;4988071;28;20062;-61
2020/12/29 07:14:32;;;;;;;61.47;25.00;;;;;;;-0.73;91.89;96394.47;4993772;28;20474;-61
2020/12/29 07:16:59;;;;;;;42.77;16.90;;;;;;;-0.69;92.27;96390.22;4993541;28;20095;-62
2020/12/29 07:19:26;;;;;;;23.10;9.63;;;;;;;-0.66;92.39;96392.69;4996989;28;20481;-62
2020/12/29 07:21:52;;;;;;;17.93;7.13;;;;;;;-0.65;92.05;96401.91;5012670;28;20970;-61
2020/12/29 07:24:18;;;;;;;12.97;6.37;;;;;;;-0.68;92.04;96400.25;5014543;28;20473;-61
2020/12/29 07:26:44;;;;;;;71.63;28.07;;;;;;;-0.64;92.12;96406.09;5006124;28;20030;-61
2020/12/29 07:29:09;;;;;;;83.50;32.13;;;;;;;-0.60;91.99;96402.69;4993096;28;20026;-61
2020/12/29 07:31:40;;;;;;;105.20;39.50;;;;;;;-0.53;92.46;96400.09;4997618;28;20022;-61
2020/12/29 07:34:15;;;;;;;95.93;35.60;;;;;;;-0.40;92.63;96397.44;5013595;28;20091;-62
2020/12/29 07:36:49;;;;;;;139.50;50.75;;;;;;;-0.26;92.13;96405.66;5008325;28;20106;-61
2020/12/29 07:39:16;;;;;;;93.00;31.57;;;;;;;-0.34;92.24;96403.19;4990550;28;20026;-61
2020/12/29 07:41:42;;;;;;;67.47;23.87;;;;;;;-0.27;92.78;96401.47;4992968;28;20171;-61
2020/12/29 07:44:08;;;;;;;51.93;20.03;;;;;;;-0.30;93.17;96397.31;4992759;28;20068;-61
2020/12/29 07:46:34;;;;;;;44.33;18.80;;;;;;;-0.25;93.53;96393.03;4994125;28;20037;-60
2020/12/29 07:49:00;;;;;;;36.00;16.53;;;;;;;-0.12;93.74;96402.09;4996306;28;20022;-62
2020/12/29 07:51:26;;;;;;;35.90;14.67;;;;;;;-0.11;93.27;96410.47;5013992;28;20033;-61
2020/12/29 07:53:52;;;;;;;15.23;9.23;;;;;;;0.00;93.30;96419.53;5012334;28;20316;-60
2020/12/29 07:56:19;;;;;;;19.87;10.17;;;;;;;0.07;93.35;96411.91;5014251;28;20101;-62
2020/12/29 07:58:44;;;;;;;13.97;8.00;;;;;;;0.16;93.18;96419.34;5013079;28;20038;-62
2020/12/29 08:01:11;;;;;;;12.03;7.00;;;;;;;0.16;92.59;96414.31;5012713;28;20373;-62
2020/12/29 08:03:37;;;;;;;10.70;6.80;;;;;;;0.34;92.80;96424.13;5012694;28;20022;-62
2020/12/29 08:06:03;;;;;;;8.87;5.90;;;;;;;0.34;92.34;96427.47;4995766;28;20118;-61
2020/12/29 08:08:28;;;;;;;9.40;4.77;;;;;;;0.53;92.20;96429.72;4992338;28;20030;-62
2020/12/29 08:10:53;;;;;;;8.50;4.10;;;;;;;0.76;91.87;96420.94;5008962;28;20029;-62
2020/12/29 08:13:19;;;;;;;8.03;4.70;;;;;;;0.85;91.68;96419.94;5012803;28;20034;-63
2020/12/29 08:15:47;;;;;;;5.50;4.03;;;;;;;1.00;90.54;96424.75;5013044;28;20097;-62
2020/12/29 08:18:20;;;;;;;9.20;5.63;;;;;;;1.16;90.18;96425.31;5013166;28;20022;-62
2020/12/29 08:20:56;;;;;;;10.47;6.23;;;;;;;1.35;89.75;96434.22;5012661;28;20041;-63
2020/12/29 08:23:23;;;;;;;8.90;4.47;;;;;;;1.41;90.68;96436.63;5013527;28;20022;-62
2020/12/29 08:25:59;;;;;;;6.87;4.80;;;;;;;1.32;89.98;96445.19;5011464;28;20091;-62
2020/12/29 08:28:37;;;;;;;6.87;4.57;;;;;;;1.46;89.85;96437.38;5012182;28;20448;-63
2020/12/29 08:31:06;;;;;;;7.30;5.00;;;;;;;1.74;89.90;96425.88;5003217;28;20022;-63
2020/12/29 08:33:32;;;;;;;5.53;4.90;;;;;;;1.73;89.50;96429.28;4992310;28;20074;-63
2020/12/29 08:36:02;;;;;;;6.63;5.17;;;;;;;1.79;88.92;96434.19;5005085;28;20470;-62
2020/12/29 08:38:31;;;;;;;6.70;5.20;;;;;;;2.00;88.98;96432.91;5001207;28;20076;-62
2020/12/29 08:41:08;;;;;;;7.67;4.87;;;;;;;1.97;88.95;96443.09;5000813;28;20076;-62
2020/12/29 08:43:55;;;;;;;11.80;5.97;;;;;;;2.25;87.65;96440.81;4992742;28;20359;-62
2020/12/29 08:46:23;;;;;;;15.47;8.70;;;;;;;2.38;88.23;96434.63;4994902;28;20030;-62
2020/12/29 08:48:59;;;;;;;12.07;6.73;;;;;;;2.48;88.22;96433.56;5009502;28;20044;-62
2020/12/29 08:51:26;;;;;;;7.27;5.23;;;;;;;2.64;86.88;96442.44;4999380;28;20038;-62
2020/12/29 08:54:18;;;;;;;11.20;4.83;;;;;;;2.75;86.76;96450.63;5004903;28;20071;-62
2020/12/29 08:56:45;;;;;;;5.97;4.20;;;;;;;2.86;86.35;96449.53;4999821;28;20030;-63
2020/12/29 08:59:13;;;;;;;6.07;4.17;;;;;;;3.02;86.08;96448.28;5012078;28;20041;-63
2020/12/29 09:01:40;;;;;;;8.53;4.33;;;;;;;3.07;86.24;96446.47;5007837;28;20102;-63
2020/12/29 09:04:36;;;;;;;11.50;5.43;;;;;;;3.28;85.54;96453.53;4998864;28;20041;-64
2020/12/29 09:07:04;;;;;;;5.23;4.37;;;;;;;3.50;84.60;96458.88;5010631;28;20033;-63
2020/12/29 09:09:35;;;;;;;9.00;6.47;;;;;;;3.64;85.69;96472.03;5004398;28;20034;-62
2020/12/29 09:12:09;;;;;;;6.97;4.97;;;;;;;3.63;85.30;96472.91;4998691;28;20035;-63
2020/12/29 09:14:35;;;;;;;7.97;5.53;;;;;;;3.64;84.58;96469.50;4992077;28;20031;-63
2020/12/29 09:17:03;;;;;;;9.07;5.20;;;;;;;3.72;85.26;96465.06;4999606;28;20085;-63
2020/12/29 09:19:28;;;;;;;10.37;5.80;;;;;;;3.86;83.42;96454.56;4998389;28;20101;-63
2020/12/29 09:22:11;;;;;;;8.93;5.27;;;;;;;4.08;82.02;96441.22;4997520;28;20109;-63
2020/12/29 09:24:50;;;;;;;7.27;4.23;;;;;;;4.19;81.65;96445.16;4998433;28;20406;-62
2020/12/29 09:27:29;;;;;;;11.97;4.77;;;;;;;4.36;81.96;96450.56;4993207;28;20027;-63
2020/12/29 09:29:55;;;;;;;9.83;4.83;;;;;;;4.54;81.22;96444.94;5004982;28;20026;-63
2020/12/29 09:32:20;;;;;;;5.27;3.93;;;;;;;4.83;78.58;96456.72;5003774;28;20450;-63
2020/12/29 09:34:47;;;;;;;5.10;3.40;;;;;;;5.05;77.18;96445.00;4997177;28;20091;-62
2020/12/29 09:37:12;;;;;;;4.20;2.20;;;;;;;5.31;76.42;96441.59;5010668;28;20044;-63
2020/12/29 09:39:37;;;;;;;3.07;1.87;;;;;;;5.44;75.69;96442.84;4994166;28;20438;-63
2020/12/29 09:42:03;;;;;;;1.87;1.37;;;;;;;5.64;73.77;96440.47;4996057;28;20026;-63
2020/12/29 09:44:28;;;;;;;2.77;1.50;;;;;;;5.70;71.77;96444.50;5011185;28;20037;-63
2020/12/29 09:46:54;;;;;;;2.27;1.37;;;;;;;5.77;71.23;96454.38;4995101;28;20030;-63
2020/12/29 09:49:19;;;;;;;2.10;1.33;;;;;;;5.72;70.64;96452.91;4994850;28;20045;-63
2020/12/29 09:51:44;;;;;;;1.80;1.30;;;;;;;5.79;70.31;96445.00;5007321;28;20054;-63
2020/12/29 09:54:10;;;;;;;2.97;1.93;;;;;;;5.80;71.18;96444.13;5000942;28;20090;-63
2020/12/29 09:56:35;;;;;;;3.40;2.60;;;;;;;5.89;72.36;96448.09;5000514;28;20057;-63
2020/12/29 09:59:01;;;;;;;7.50;4.33;;;;;;;6.01;73.06;96445.13;4997488;28;20423;-63
2020/12/29 10:01:26;;;;;;;5.50;4.70;;;;;;;6.09;73.93;96443.13;4999388;28;20443;-63
2020/12/29 10:03:52;;;;;;;7.10;4.67;;;;;;;6.17;73.19;96440.28;4995633;28;20459;-63
2020/12/29 10:06:17;;;;;;;4.87;3.40;;;;;;;6.17;70.77;96448.75;4997412;28;20026;-63
2020/12/29 10:08:42;;;;;;;6.50;3.80;;;;;;;6.29;70.06;96455.09;4994295;28;20156;-63
2020/12/29 10:11:10;;;;;;;4.70;3.77;;;;;;;6.61;69.59;96459.00;4994145;28;20026;-63
2020/12/29 10:13:36;;;;;;;8.47;4.53;;;;;;;6.63;68.57;96450.41;5004528;28;20064;-63
2020/12/29 10:16:01;;;;;;;6.87;4.20;;;;;;;7.02;67.73;96453.09;4997898;28;20042;-62
2020/12/29 10:18:27;;;;;;;6.20;4.63;;;;;;;7.24;66.09;96453.91;5010027;28;20040;-63
2020/12/29 10:20:52;;;;;;;5.73;3.33;;;;;;;7.55;64.78;96447.53;4998857;28;20026;-63
2020/12/29 10:23:18;;;;;;;3.60;3.00;;;;;;;7.74;63.77;96449.22;4996950;28;20071;-64
2020/12/29 10:25:43;;;;;;;4.30;3.00;;;;;;;7.92;61.79;96454.44;5005285;28;20454;-64
2020/12/29 10:28:08;;;;;;;6.07;3.53;;;;;;;7.95;60.39;96460.22;5011117;28;20025;-64
2020/12/29 10:30:34;;;;;;;3.27;2.40;;;;;;;7.95;60.69;96460.22;5011118;28;20022;-65
2020/12/29 10:32:59;;;;;;;5.70;3.20;;;;;;;8.07;60.43;96463.97;5008486;28;20046;-63
2020/12/29 10:35:25;;;;;;;5.47;2.60;;;;;;;8.21;59.50;96469.31;5011892;28;20053;-64
2020/12/29 10:37:51;;;;;;;3.50;2.50;;;;;;;8.31;58.68;96460.38;5010395;28;20060;-64
2020/12/29 10:40:16;;;;;;;2.43;2.20;;;;;;;8.37;58.91;96456.69;5011556;28;20036;-64
2020/12/29 10:42:42;;;;;;;3.70;2.30;;;;;;;8.53;55.71;96460.25;5002631;28;20091;-63
2020/12/29 10:45:07;;;;;;;3.37;2.70;;;;;;;8.65;56.24;96457.13;4992119;28;20026;-64
2020/12/29 10:47:32;;;;;;;6.37;3.13;;;;;;;8.81;57.11;96462.34;4996084;28;20091;-64
2020/12/29 10:49:58;;;;;;;5.47;3.10;;;;;;;8.99;55.21;96454.66;5011634;28;20362;-63
2020/12/29 10:52:23;;;;;;;6.20;2.87;;;;;;;9.16;52.21;96451.28;5006560;28;20030;-63
2020/12/29 10:54:49;;;;;;;5.30;2.60;;;;;;;9.36;51.64;96448.56;4992512;28;20046;-64
2020/12/29 10:57:14;;;;;;;2.03;1.73;;;;;;;9.41;51.47;96449.19;4990755;28;20030;-63
2020/12/29 10:59:40;;;;;;;2.00;1.90;;;;;;;9.55;51.99;96449.31;5011770;28;20579;-63
2020/12/29 11:02:07;;;;;;;2.13;1.40;;;;;;;9.59;51.31;96458.47;5010135;28;20034;-63
2020/12/29 11:04:33;;;;;;;1.93;1.70;;;;;;;9.42;51.54;96457.69;4991447;28;20026;-63
2020/12/29 11:06:58;;;;;;;3.63;2.17;;;;;;;9.48;52.17;96465.03;4990711;28;20041;-63
2020/12/29 11:09:23;;;;;;;7.77;3.70;;;;;;;9.39;52.65;96470.59;4991469;28;20042;-63
2020/12/29 11:11:49;;;;;;;4.53;3.40;;;;;;;9.31;53.45;96468.41;4990927;28;20122;-64
2020/12/29 11:14:14;;;;;;;6.13;3.33;;;;;;;9.24;53.03;96463.69;5004904;28;20037;-64
2020/12/29 11:16:40;;;;;;;6.13;2.30;;;;;;;9.21;51.44;96459.53;5010536;28;20049;-64
2020/12/29 11:19:05;;;;;;;5.63;2.97;;;;;;;9.26;51.31;96454.19;4996960;28;20068;-64
2020/12/29 11:21:30;;;;;;;3.80;2.23;;;;;;;9.27;50.92;96459.25;5011374;28;20086;-64
2020/12/29 11:23:56;;;;;;;4.03;2.87;;;;;;;9.27;50.27;96460.97;4998964;28;20030;-64
2020/12/29 11:26:22;;;;;;;3.90;2.90;;;;;;;9.36;49.44;96460.53;4991177;28;20053;-63
2020/12/29 11:28:48;;;;;;;2.93;2.13;;;;;;;9.47;49.82;96473.59;4993673;28;20407;-64
2020/12/29 11:31:16;;;;;;;2.47;1.60;;;;;;;9.54;47.49;96463.00;5011185;28;20029;-64
2020/12/29 11:33:41;;;;;;;3.90;1.97;;;;;;;9.58;49.22;96472.19;5006515;28;20054;-64
2020/12/29 11:36:07;;;;;;;1.70;1.60;;;;;;;9.64;48.55;96481.28;4991944;28;20030;-64
2020/12/29 11:38:33;;;;;;;1.87;1.17;;;;;;;9.54;48.24;96485.22;5000733;28;20036;-64